Time;durP1;ratioP1;P1;durP2;ratioP2;P2;SDS_P1;SDS_P2;PMS_P1;PMS_P2;Temp;Humidity;BMP_temperature;BMP_pressure;BME280_temperature;BME280_humidity;BME280_pressure;Samples;Min_cycle;Max_cycle;Signal;HPM_P1;HPM_P2
2023/02/01 00:01:52;;;;;;;7.00;3.75;;;;;;;2.16;100.00;98595.66;4188690;28;20032;-75
2023/02/01 00:03:52;;;;;;;7.30;3.20;;;;;;;2.10;100.00;98591.47;4187101;28;20059;-75
2023/02/01 00:05:59;;;;;;;4.38;2.75;;;;;;;2.02;100.00;98597.72;4187085;28;20044;-75
2023/02/01 00:08:00;;;;;;;8.05;2.83;;;;;;;2.09;100.00;98600.78;4192832;28;20086;-75
2023/02/01 00:10:00;;;;;;;7.95;3.10;;;;;;;2.04;100.00;98597.41;4187524;28;20492;-75
2023/02/01 00:12:02;;;;;;;9.05;3.78;;;;;;;2.07;100.00;98607.66;4187094;28;20048;-75
2023/02/01 00:14:02;;;;;;;7.57;3.35;;;;;;;2.09;100.00;98602.72;4186732;28;20405;-75
2023/02/01 00:16:12;;;;;;;9.15;4.30;;;;;;;2.13;100.00;98606.41;4186921;28;20039;-75
2023/02/01 00:18:12;;;;;;;5.63;3.22;;;;;;;2.16;100.00;98601.13;4192560;28;20055;-75
2023/02/01 00:20:12;;;;;;;7.68;3.40;;;;;;;2.24;100.00;98615.91;4194011;28;20433;-75
2023/02/01 00:22:13;;;;;;;7.07;3.53;;;;;;;2.22;100.00;98599.03;4186328;28;20051;-75
2023/02/01 00:24:13;;;;;;;10.18;3.63;;;;;;;2.20;100.00;98607.53;4186439;28;20243;-75
2023/02/01 00:26:16;;;;;;;6.88;3.53;;;;;;;2.30;100.00;98605.63;4186619;28;20033;-75
2023/02/01 00:28:17;;;;;;;7.90;3.45;;;;;;;2.32;100.00;98601.47;4186655;28;20125;-75
2023/02/01 00:30:18;;;;;;;4.95;3.33;;;;;;;2.36;100.00;98604.34;4187924;28;20688;-75
2023/02/01 00:32:18;;;;;;;5.78;3.67;;;;;;;2.34;100.00;98606.59;4186976;28;20032;-75
2023/02/01 00:34:20;;;;;;;7.70;4.00;;;;;;;2.27;100.00;98600.81;4186223;28;20036;-75
2023/02/01 00:36:20;;;;;;;7.50;3.70;;;;;;;2.25;100.00;98599.19;4186279;28;20102;-75
2023/02/01 00:38:20;;;;;;;12.75;4.45;;;;;;;2.25;100.00;98604.66;4186035;28;20052;-75
2023/02/01 00:40:21;;;;;;;12.45;3.80;;;;;;;2.36;100.00;98596.94;4188614;28;20063;-75
2023/02/01 00:42:21;;;;;;;11.32;4.00;;;;;;;2.45;100.00;98603.22;4185958;28;20089;-75
2023/02/01 00:44:21;;;;;;;7.57;3.67;;;;;;;2.48;100.00;98597.13;4186571;28;20135;-75
2023/02/01 00:46:22;;;;;;;13.30;3.60;;;;;;;2.46;100.00;98614.94;4186365;28;20048;-75
2023/02/01 00:48:22;;;;;;;8.98;3.78;;;;;;;2.44;100.00;98609.00;4186580;28;20040;-75
2023/02/01 00:50:22;;;;;;;9.32;4.10;;;;;;;2.38;100.00;98602.88;4185634;28;20446;-75
2023/02/01 00:52:23;;;;;;;4.20;3.05;;;;;;;2.36;100.00;98599.69;4185184;28;20041;-75
2023/02/01 00:54:23;;;;;;;10.35;3.85;;;;;;;2.42;100.00;98598.41;4185169;28;20083;-75
2023/02/01 00:56:24;;;;;;;9.38;4.18;;;;;;;2.40;100.00;98597.09;4184550;28;20071;-75
2023/02/01 00:58:25;;;;;;;7.60;3.50;;;;;;;2.43;100.00;98608.19;4188658;28;20053;-75
2023/02/01 01:00:26;;;;;;;7.60;3.75;;;;;;;2.47;100.00;98589.22;4185759;28;20059;-75
2023/02/01 01:02:27;;;;;;;11.35;3.95;;;;;;;2.44;100.00;98598.88;4189331;28;20404;-74
2023/02/01 01:04:27;;;;;;;8.18;3.75;;;;;;;2.45;100.00;98596.94;4193250;28;20614;-75
2023/02/01 01:06:31;;;;;;;8.82;3.83;;;;;;;2.52;100.00;98594.53;4187063;28;20048;-75
2023/02/01 01:08:32;;;;;;;13.35;3.42;;;;;;;2.44;100.00;98596.16;4193165;28;20040;-75
2023/02/01 01:10:32;;;;;;;12.45;4.20;;;;;;;2.49;100.00;98597.94;4193821;28;20048;-75
2023/02/01 01:12:32;;;;;;;9.57;3.40;;;;;;;2.61;100.00;98605.47;4187470;28;20111;-75
2023/02/01 01:14:33;;;;;;;10.57;3.60;;;;;;;2.56;100.00;98589.22;4185946;28;20388;-75
2023/02/01 01:16:34;;;;;;;7.88;3.50;;;;;;;2.56;100.00;98583.75;4186007;28;20051;-75
2023/02/01 01:18:34;;;;;;;7.95;3.60;;;;;;;2.58;100.00;98585.06;4186318;28;20044;-75
2023/02/01 01:20:37;;;;;;;7.50;3.78;;;;;;;2.58;100.00;98576.88;4187119;28;20063;-75
2023/02/01 01:22:37;;;;;;;8.05;3.30;;;;;;;2.66;100.00;98578.78;4185342;28;20131;-75
2023/02/01 01:24:39;;;;;;;11.77;3.33;;;;;;;2.74;100.00;98579.91;4185949;28;20063;-75
2023/02/01 01:26:39;;;;;;;15.32;3.85;;;;;;;2.77;100.00;98582.78;4185308;28;20076;-75
2023/02/01 01:28:39;;;;;;;8.88;3.50;;;;;;;2.82;100.00;98584.56;4186908;28;20488;-75
2023/02/01 01:30:40;;;;;;;10.10;3.83;;;;;;;2.81;100.00;98581.03;4186168;28;20040;-75
2023/02/01 01:32:40;;;;;;;8.57;3.00;;;;;;;2.91;100.00;98601.72;4189094;28;20032;-75
2023/02/01 01:34:40;;;;;;;7.65;2.97;;;;;;;3.03;100.00;98582.72;4186176;28;20097;-75
2023/02/01 01:36:41;;;;;;;7.22;3.45;;;;;;;2.99;100.00;98589.97;4188073;28;20079;-75
2023/02/01 01:38:41;;;;;;;10.82;3.28;;;;;;;3.04;99.58;98580.78;4185812;28;20075;-75
2023/02/01 01:40:46;;;;;;;9.85;3.30;;;;;;;3.06;99.65;98581.25;4186525;28;20233;-75
2023/02/01 01:42:48;;;;;;;16.30;4.95;;;;;;;3.03;99.74;98585.44;4184763;28;20048;-75
2023/02/01 01:45:03;;;;;;;9.40;3.27;;;;;;;2.92;100.00;98572.47;4188214;28;20040;-75
2023/02/01 01:47:03;;;;;;;8.95;3.47;;;;;;;2.92;100.00;98580.66;4185671;28;20494;-75
2023/02/01 01:49:20;;;;;;;15.85;3.67;;;;;;;2.89;100.00;98579.38;4185546;28;20049;-75
2023/02/01 01:51:24;;;;;;;11.30;3.38;;;;;;;2.91;100.00;98573.59;4192009;28;20056;-75
2023/02/01 01:53:35;;;;;;;10.82;3.92;;;;;;;2.80;100.00;98559.47;4185975;28;20196;-75
2023/02/01 01:55:40;;;;;;;12.18;4.25;;;;;;;2.78;100.00;98570.72;4185926;28;20048;-75
2023/02/01 01:57:46;;;;;;;10.77;3.90;;;;;;;2.73;100.00;98570.06;4186494;28;20048;-75
2023/02/01 01:59:53;;;;;;;8.02;3.47;;;;;;;2.76;100.00;98562.06;4185525;28;20048;-75
2023/02/01 02:01:55;;;;;;;6.55;3.35;;;;;;;2.71;100.00;98555.94;4190193;28;20491;-75
2023/02/01 02:03:57;;;;;;;12.88;4.82;;;;;;;2.68;100.00;98559.34;4185400;28;20037;-76
2023/02/01 02:05:59;;;;;;;14.75;4.35;;;;;;;2.76;100.00;98553.06;4185583;28;20361;-75
2023/02/01 02:08:02;;;;;;;10.25;3.28;;;;;;;2.67;100.00;98553.06;4186165;28;20488;-75
2023/02/01 02:10:11;;;;;;;10.60;4.05;;;;;;;2.57;100.00;98547.16;4185628;28;20500;-75
2023/02/01 02:12:11;;;;;;;9.40;3.65;;;;;;;2.64;100.00;98556.44;4185131;28;20033;-74
2023/02/01 02:14:15;;;;;;;7.35;3.40;;;;;;;2.62;100.00;98553.22;4185617;28;20647;-75
2023/02/01 02:16:43;;;;;;;17.23;4.00;;;;;;;2.65;100.00;98543.56;4186972;28;20040;-75
2023/02/01 02:18:46;;;;;;;7.05;3.47;;;;;;;2.65;100.00;98544.41;4188654;28;20057;-75
2023/02/01 02:20:50;;;;;;;13.00;4.10;;;;;;;2.63;100.00;98537.63;4188559;28;20041;-75
2023/02/01 02:22:53;;;;;;;10.63;3.63;;;;;;;2.72;100.00;98536.50;4187959;28;20164;-75
2023/02/01 02:25:21;;;;;;;7.97;3.78;;;;;;;2.69;100.00;98542.63;4188996;28;20036;-75
2023/02/01 02:27:49;;;;;;;10.45;3.75;;;;;;;2.69;100.00;98542.63;4188061;28;20160;-75
2023/02/01 02:30:11;;;;;;;7.03;3.30;;;;;;;2.71;100.00;98536.81;4192035;28;20097;-75
2023/02/01 02:32:30;;;;;;;6.45;3.60;;;;;;;2.69;100.00;98534.41;4188602;28;20110;-75
2023/02/01 02:35:01;;;;;;;12.85;3.85;;;;;;;2.67;100.00;98536.69;4189148;28;20103;-75
2023/02/01 02:37:40;;;;;;;7.68;3.67;;;;;;;2.64;100.00;98534.56;4188913;28;20040;-75
2023/02/01 02:40:06;;;;;;;5.45;2.95;;;;;;;2.60;100.00;98530.91;4187917;28;20480;-75
2023/02/01 02:47:27;;;;;;;9.00;3.40;;;;;;;2.56;100.00;98524.47;4187553;28;20380;-75
2023/02/01 02:49:36;;;;;;;8.60;3.30;;;;;;;2.64;100.00;98526.38;4188669;28;20384;-74
2023/02/01 03:05:56;;;;;;;10.70;2.85;;;;;;;2.56;100.00;98524.47;4188669;28;20048;-75
2023/02/01 03:08:03;;;;;;;8.75;2.95;;;;;;;2.52;100.00;98527.06;4188219;28;20044;-75
2023/02/01 03:10:09;;;;;;;5.22;2.70;;;;;;;2.65;100.00;98524.44;4188036;28;20124;-75
2023/02/01 03:14:36;;;;;;;6.35;2.00;;;;;;;2.67;100.00;98517.56;4186426;28;20063;-75
2023/02/01 03:16:45;;;;;;;7.28;2.40;;;;;;;2.57;100.00;98517.09;4187789;28;20044;-75
2023/02/01 03:18:55;;;;;;;6.32;2.15;;;;;;;2.50;100.00;98520.31;4188250;28;20036;-75
2023/02/01 03:20:58;;;;;;;3.50;1.92;;;;;;;2.40;100.00;98512.44;4188118;28;20045;-75
2023/02/01 03:22:59;;;;;;;6.53;2.22;;;;;;;2.40;100.00;98528.81;4187288;28;20563;-75
2023/02/01 03:25:05;;;;;;;4.32;1.75;;;;;;;2.39;100.00;98510.84;4188371;28;20099;-75
2023/02/01 03:27:18;;;;;;;7.55;2.30;;;;;;;2.24;100.00;98496.59;4191141;28;20553;-76
2023/02/01 03:29:23;;;;;;;6.45;2.33;;;;;;;2.16;100.00;98482.94;4186141;28;20037;-75
2023/02/01 03:31:24;;;;;;;8.70;2.55;;;;;;;2.01;100.00;98484.22;4187229;28;20041;-75
2023/02/01 03:33:26;;;;;;;5.30;2.55;;;;;;;1.98;100.00;98485.66;4187734;28;20356;-75
2023/02/01 03:35:39;;;;;;;6.50;2.50;;;;;;;1.91;100.00;98479.09;4187766;28;20432;-75
2023/02/01 03:37:40;;;;;;;4.60;2.42;;;;;;;1.87;100.00;98473.47;4187608;28;20308;-75
2023/02/01 03:40:00;;;;;;;5.05;2.30;;;;;;;1.88;100.00;98472.34;4191582;28;20036;-76
2023/02/01 03:42:26;;;;;;;6.70;2.72;;;;;;;1.87;100.00;98480.84;4190341;28;20102;-75
2023/02/01 03:44:35;;;;;;;3.97;2.85;;;;;;;1.79;100.00;98466.09;4190824;28;20539;-76
2023/02/01 03:46:43;;;;;;;8.75;3.40;;;;;;;1.75;100.00;98470.59;4187489;28;20519;-75
2023/02/01 03:48:44;;;;;;;6.57;3.03;;;;;;;1.81;100.00;98473.94;4187681;28;20118;-76
2023/02/01 03:50:50;;;;;;;8.20;3.08;;;;;;;1.83;100.00;98467.06;4187672;28;20567;-76
2023/02/01 03:52:53;;;;;;;6.30;2.67;;;;;;;1.84;100.00;98476.06;4192070;28;20122;-76
2023/02/01 03:54:54;;;;;;;4.25;2.67;;;;;;;1.79;100.00;98468.00;4187709;28;20084;-75
2023/02/01 03:56:57;;;;;;;6.00;2.47;;;;;;;1.79;100.00;98471.53;4189046;28;20264;-75
2023/02/01 03:58:58;;;;;;;7.10;2.65;;;;;;;1.77;100.00;98473.00;4188113;28;20052;-76
2023/02/01 04:01:00;;;;;;;11.32;3.20;;;;;;;1.73;100.00;98470.09;4186599;28;20044;-76
2023/02/01 04:03:04;;;;;;;4.00;2.58;;;;;;;1.78;100.00;98469.13;4189744;28;20365;-76
2023/02/01 04:05:04;;;;;;;7.90;2.67;;;;;;;1.82;100.00;98472.81;4187695;28;20380;-76
2023/02/01 04:07:04;;;;;;;4.78;2.47;;;;;;;1.92;100.00;98464.34;4187122;28;20084;-75
2023/02/01 04:09:05;;;;;;;7.53;3.22;;;;;;;2.07;100.00;98473.94;4187355;28;20044;-75
2023/02/01 04:11:05;;;;;;;7.80;3.47;;;;;;;2.25;100.00;98465.44;4186032;28;20371;-75
2023/02/01 04:13:06;;;;;;;11.07;3.72;;;;;;;2.38;100.00;98465.56;4190378;28;20045;-75
2023/02/01 04:15:07;;;;;;;8.30;3.35;;;;;;;2.58;100.00;98461.34;4187062;28;20125;-75
2023/02/01 04:17:08;;;;;;;10.15;4.10;;;;;;;2.70;100.00;98464.19;4186804;28;20102;-75
2023/02/01 04:19:08;;;;;;;12.23;3.60;;;;;;;2.78;100.00;98477.03;4186553;28;20063;-75
2023/02/01 04:21:08;;;;;;;13.70;3.53;;;;;;;2.79;100.00;98460.28;4190513;28;20380;-75
2023/02/01 04:23:09;;;;;;;11.27;4.03;;;;;;;2.74;100.00;98465.97;4188051;28;20510;-75
2023/02/01 04:25:09;;;;;;;13.43;3.80;;;;;;;2.72;100.00;98465.47;4189524;28;20052;-75
2023/02/01 04:27:09;;;;;;;11.20;4.45;;;;;;;2.66;100.00;98447.66;4187048;28;20040;-75
2023/02/01 04:29:10;;;;;;;13.32;3.83;;;;;;;2.62;100.00;98454.88;4188514;28;20044;-75
2023/02/01 04:31:10;;;;;;;11.15;3.80;;;;;;;2.64;100.00;98451.81;4189713;28;20044;-75
2023/02/01 04:33:13;;;;;;;11.73;3.55;;;;;;;2.60;100.00;98445.44;4186825;28;20128;-76
2023/02/01 04:35:14;;;;;;;6.55;3.60;;;;;;;2.58;100.00;98437.56;4179359;28;20220;-75
2023/02/01 04:37:14;;;;;;;8.23;3.53;;;;;;;2.56;100.00;98437.06;4181149;28;20051;-75
2023/02/01 04:39:14;;;;;;;10.45;3.50;;;;;;;2.59;100.00;98432.91;4180801;28;20040;-75
2023/02/01 04:41:18;;;;;;;8.43;3.75;;;;;;;2.55;100.00;98432.72;4179524;28;20048;-75
2023/02/01 04:43:18;;;;;;;12.98;4.50;;;;;;;2.51;100.00;98445.47;4186275;28;20091;-75
2023/02/01 04:45:19;;;;;;;14.98;3.83;;;;;;;2.48;100.00;98435.16;4179041;28;20056;-75
2023/02/01 04:47:19;;;;;;;14.23;5.10;;;;;;;2.45;100.00;98431.16;4178957;28;20483;-75
2023/02/01 04:49:21;;;;;;;11.88;4.28;;;;;;;2.47;100.00;98434.38;4182901;28;20867;-75
2023/02/01 04:51:21;;;;;;;14.95;4.07;;;;;;;2.59;100.00;98422.78;4179907;28;20040;-75
2023/02/01 04:53:22;;;;;;;9.65;4.10;;;;;;;2.59;100.00;98417.31;4180432;28;20149;-75
2023/02/01 04:55:22;;;;;;;11.90;4.15;;;;;;;2.68;100.00;98398.97;4188680;28;20343;-75
2023/02/01 04:57:23;;;;;;;10.57;3.95;;;;;;;2.67;100.00;98400.09;4181808;28;20075;-75
2023/02/01 04:59:23;;;;;;;8.77;4.50;;;;;;;2.72;100.00;98396.34;4181607;28;20492;-75
2023/02/01 05:01:26;;;;;;;7.75;3.25;;;;;;;2.84;100.00;98404.69;4178820;28;20128;-75
2023/02/01 05:03:27;;;;;;;13.73;6.13;;;;;;;2.80;100.00;98403.72;4177512;28;20539;-75
2023/02/01 05:05:28;;;;;;;15.55;4.90;;;;;;;2.86;100.00;98401.59;4177973;28;20256;-75
2023/02/01 05:07:28;;;;;;;11.50;4.30;;;;;;;2.84;100.00;98399.22;4179242;28;20070;-75
2023/02/01 05:09:28;;;;;;;7.95;3.65;;;;;;;2.79;100.00;98391.19;4176600;28;20115;-75
2023/02/01 05:13:47;;;;;;;9.15;3.80;;;;;;;2.83;100.00;98381.22;4189787;28;20106;-75
2023/02/01 05:15:50;;;;;;;11.18;3.83;;;;;;;2.81;100.00;98381.56;4186454;28;20722;-75
2023/02/01 05:17:50;;;;;;;13.32;3.80;;;;;;;2.78;100.00;98367.72;4187091;28;20056;-75
2023/02/01 05:19:51;;;;;;;12.48;4.20;;;;;;;2.69;100.00;98380.63;4188274;28;20044;-75
2023/02/01 05:21:51;;;;;;;12.88;4.20;;;;;;;2.80;100.00;98382.66;4186869;28;20091;-75
2023/02/01 05:24:09;;;;;;;8.68;4.70;;;;;;;2.81;100.00;98367.06;4186486;28;20044;-75
2023/02/01 05:26:10;;;;;;;7.03;3.83;;;;;;;2.74;100.00;98384.00;4189122;28;20040;-76
2023/02/01 05:28:10;;;;;;;10.90;4.30;;;;;;;2.70;100.00;98376.78;4186159;28;20498;-75
2023/02/01 05:30:11;;;;;;;12.57;4.40;;;;;;;2.73;100.00;98371.47;4188628;28;20036;-75
2023/02/01 05:32:11;;;;;;;11.07;4.20;;;;;;;2.82;100.00;98371.41;4187796;28;20059;-75
2023/02/01 05:34:13;;;;;;;12.63;4.72;;;;;;;2.79;100.00;98361.13;4184231;28;20121;-75
2023/02/01 05:36:13;;;;;;;11.70;4.45;;;;;;;2.73;100.00;98373.38;4185043;28;20048;-75
2023/02/01 05:38:14;;;;;;;8.95;3.90;;;;;;;2.79;100.00;98364.66;4184800;28;20422;-75
2023/02/01 05:40:14;;;;;;;7.82;4.03;;;;;;;2.82;100.00;98363.22;4185075;28;20123;-75
2023/02/01 05:42:14;;;;;;;9.63;4.32;;;;;;;2.84;100.00;98366.41;4184250;28;20059;-75
2023/02/01 05:44:15;;;;;;;11.38;5.72;;;;;;;2.78;100.00;98357.59;4181228;28;20368;-75
2023/02/01 05:46:15;;;;;;;13.63;4.18;;;;;;;2.89;100.00;98368.94;4188554;28;20112;-75
2023/02/01 05:48:15;;;;;;;8.10;3.83;;;;;;;2.86;100.00;98352.41;4184947;28;20468;-75
2023/02/01 05:50:16;;;;;;;10.65;3.67;;;;;;;2.81;100.00;98358.84;4187179;28;20514;-75
2023/02/01 05:52:19;;;;;;;9.15;3.72;;;;;;;2.79;100.00;98356.47;4190914;28;20036;-75
2023/02/01 05:54:19;;;;;;;8.10;3.67;;;;;;;2.71;100.00;98357.31;4135399;28;20068;-75
2023/02/01 05:56:20;;;;;;;12.57;3.72;;;;;;;2.73;100.00;98352.34;4189775;28;20093;-75
2023/02/01 05:58:20;;;;;;;9.88;3.55;;;;;;;2.71;100.00;98356.50;4187682;28;20432;-75
2023/02/01 06:00:21;;;;;;;9.73;3.22;;;;;;;2.71;100.00;98362.78;4192565;28;20056;-75
2023/02/01 06:02:23;;;;;;;13.48;3.70;;;;;;;2.73;100.00;98365.16;4193815;28;20052;-75
2023/02/01 06:04:24;;;;;;;9.93;4.70;;;;;;;2.73;99.58;98356.97;4188614;28;20056;-75
2023/02/01 06:06:24;;;;;;;8.15;4.13;;;;;;;2.73;99.17;98349.59;4188995;28;20052;-75
2023/02/01 06:08:25;;;;;;;11.30;3.55;;;;;;;2.69;98.98;98335.00;4189926;28;20092;-76
2023/02/01 06:10:25;;;;;;;13.93;4.18;;;;;;;2.73;97.48;98344.16;4189044;28;20131;-75
2023/02/01 06:12:27;;;;;;;17.13;6.22;;;;;;;2.78;96.99;98346.66;4191037;28;20060;-75
2023/02/01 06:14:28;;;;;;;10.95;4.15;;;;;;;2.87;96.02;98349.34;4189181;28;20434;-75
2023/02/01 06:16:29;;;;;;;9.93;4.90;;;;;;;2.86;96.84;98350.50;4194435;28;20119;-75
2023/02/01 06:18:30;;;;;;;7.95;3.65;;;;;;;2.85;97.10;98356.28;4189209;28;20361;-75
2023/02/01 06:20:30;;;;;;;7.22;4.30;;;;;;;2.73;97.35;98357.81;4191524;28;20083;-75
2023/02/01 06:22:31;;;;;;;9.70;3.28;;;;;;;2.77;97.57;98355.19;4195538;28;20059;-75
2023/02/01 06:24:31;;;;;;;11.40;3.50;;;;;;;2.81;97.51;98353.41;4193223;28;20548;-75
2023/02/01 06:26:32;;;;;;;8.07;2.78;;;;;;;2.75;97.67;98344.59;4193204;28;20044;-75
2023/02/01 06:28:32;;;;;;;9.07;2.95;;;;;;;2.73;97.35;98346.88;4200866;28;20437;-75
2023/02/01 06:30:33;;;;;;;9.30;3.65;;;;;;;2.87;96.62;98348.56;4193308;28;20518;-75
2023/02/01 06:32:33;;;;;;;11.35;2.85;;;;;;;2.85;96.56;98348.09;4192594;28;20480;-75
2023/02/01 06:34:34;;;;;;;6.40;3.20;;;;;;;2.86;97.01;98330.56;4192963;28;20407;-75
2023/02/01 06:36:34;;;;;;;12.35;3.30;;;;;;;2.87;96.94;98332.97;4191426;28;20052;-75
2023/02/01 06:38:35;;;;;;;7.28;2.65;;;;;;;2.79;97.49;98329.16;4193205;28;20052;-75
2023/02/01 06:40:35;;;;;;;7.35;3.03;;;;;;;2.82;97.37;98341.38;4192887;28;20041;-76
2023/02/01 06:42:36;;;;;;;10.82;3.28;;;;;;;2.83;96.97;98342.97;4195669;28;20041;-75
2023/02/01 06:44:36;;;;;;;7.65;2.88;;;;;;;2.90;96.36;98351.44;4193049;28;20041;-75
2023/02/01 06:46:36;;;;;;;12.05;3.17;;;;;;;2.87;96.13;98335.69;4193283;28;20070;-76
2023/02/01 06:48:37;;;;;;;8.82;2.50;;;;;;;2.89;95.32;98329.88;4193823;28;20058;-75
2023/02/01 06:50:37;;;;;;;8.32;2.45;;;;;;;2.93;95.59;98336.31;4192980;28;20249;-75
2023/02/01 06:52:37;;;;;;;9.05;3.20;;;;;;;2.90;96.11;98326.84;4192497;28;20485;-75
2023/02/01 06:54:38;;;;;;;11.20;2.83;;;;;;;2.87;95.38;98329.44;4198578;28;20535;-76
2023/02/01 06:56:38;;;;;;;9.25;2.67;;;;;;;2.91;95.28;98328.44;4193442;28;20413;-75
2023/02/01 06:58:39;;;;;;;8.13;3.13;;;;;;;2.92;95.54;98308.19;4192965;28;20056;-75
2023/02/01 07:00:39;;;;;;;5.53;2.70;;;;;;;2.94;95.93;98344.16;4192884;28;20704;-75
2023/02/01 07:02:39;;;;;;;9.73;3.22;;;;;;;2.93;95.58;98334.38;4192127;28;20469;-75
2023/02/01 07:04:40;;;;;;;9.48;2.97;;;;;;;2.92;95.68;98323.78;4192349;28;20106;-75
2023/02/01 07:06:40;;;;;;;7.82;2.85;;;;;;;2.95;95.47;98326.63;4192923;28;20210;-75
2023/02/01 07:08:40;;;;;;;7.43;2.83;;;;;;;2.95;95.82;98309.44;4192674;28;20045;-76
2023/02/01 07:10:41;;;;;;;8.90;2.95;;;;;;;2.89;96.88;98327.16;4192972;28;20041;-75
2023/02/01 07:12:41;;;;;;;7.22;3.17;;;;;;;2.84;97.03;98328.16;4191752;28;20040;-75
2023/02/01 07:14:42;;;;;;;7.25;3.03;;;;;;;2.87;97.22;98323.97;4193246;28;20549;-75
2023/02/01 07:16:42;;;;;;;12.45;3.42;;;;;;;2.89;97.07;98317.03;4193438;28;20076;-76
2023/02/01 07:18:43;;;;;;;9.77;3.47;;;;;;;2.95;96.98;98334.03;4192580;28;20048;-75
2023/02/01 07:20:50;;;;;;;10.45;2.92;;;;;;;2.91;97.01;98314.78;4193161;28;20047;-75
2023/02/01 07:22:54;;;;;;;4.95;2.35;;;;;;;2.92;97.27;98310.91;4191895;28;20052;-76
2023/02/01 07:24:55;;;;;;;12.10;3.33;;;;;;;2.89;97.57;98310.75;4192650;28;20095;-75
2023/02/01 07:26:55;;;;;;;9.13;3.15;;;;;;;2.85;97.96;98298.91;4192701;28;20501;-75
2023/02/01 07:28:55;;;;;;;12.20;3.20;;;;;;;2.84;97.88;98310.97;4192406;28;20049;-75
2023/02/01 07:31:02;;;;;;;9.32;3.40;;;;;;;2.87;97.42;98311.09;4192665;28;20044;-75
2023/02/01 07:33:03;;;;;;;7.20;3.45;;;;;;;2.94;96.99;98307.84;4195179;28;20060;-75
2023/02/01 07:35:04;;;;;;;10.98;3.25;;;;;;;2.99;97.27;98322.13;4192873;28;20036;-75
2023/02/01 07:37:04;;;;;;;7.20;3.10;;;;;;;2.99;97.70;98337.72;4191855;28;20388;-75
2023/02/01 07:39:04;;;;;;;9.90;3.50;;;;;;;2.99;97.43;98332.25;4192425;28;20044;-75
2023/02/01 07:41:06;;;;;;;7.30;3.85;;;;;;;3.03;97.18;98322.25;4192874;28;20259;-76
2023/02/01 07:43:07;;;;;;;8.02;3.10;;;;;;;3.12;96.66;98339.38;4192363;28;20043;-75
2023/02/01 07:45:08;;;;;;;10.85;4.25;;;;;;;3.15;96.78;98346.16;4192356;28;20048;-75
2023/02/01 07:47:08;;;;;;;6.47;2.97;;;;;;;3.16;96.64;98343.06;4192468;28;20048;-75
2023/02/01 07:49:08;;;;;;;4.82;2.50;;;;;;;3.20;96.31;98338.53;4193245;28;20469;-75
2023/02/01 07:51:12;;;;;;;8.88;3.85;;;;;;;3.21;96.82;98359.25;4192942;28;20037;-75
2023/02/01 07:53:12;;;;;;;6.72;3.45;;;;;;;3.20;97.11;98349.47;4192073;28;20043;-75
2023/02/01 07:55:12;;;;;;;11.32;3.15;;;;;;;3.21;96.54;98350.25;4192799;28;20076;-75
2023/02/01 07:57:13;;;;;;;13.60;3.47;;;;;;;3.30;95.88;98351.78;4192616;28;20252;-75
2023/02/01 07:59:14;;;;;;;7.57;3.15;;;;;;;3.31;96.33;98366.25;4192975;28;20138;-75
2023/02/01 08:01:26;;;;;;;12.25;3.90;;;;;;;3.30;96.33;98364.66;4192226;28;20078;-75
2023/02/01 08:03:26;;;;;;;6.68;3.17;;;;;;;3.27;96.61;98360.69;4191205;28;20044;-75
2023/02/01 08:05:27;;;;;;;7.15;2.92;;;;;;;3.27;96.78;98371.63;4192004;28;20101;-75
2023/02/01 08:07:27;;;;;;;9.65;3.50;;;;;;;3.30;96.72;98367.41;4191818;28;20067;-75
2023/02/01 08:09:27;;;;;;;8.65;3.45;;;;;;;3.37;96.55;98373.94;4191892;28;20086;-75
2023/02/01 08:11:28;;;;;;;8.43;3.00;;;;;;;3.35;96.86;98361.75;4196137;28;20090;-75
2023/02/01 08:13:29;;;;;;;13.48;3.85;;;;;;;3.30;97.43;98364.66;4191564;28;20199;-75
2023/02/01 08:15:30;;;;;;;15.93;4.20;;;;;;;3.33;97.64;98374.97;4192468;28;20469;-75
2023/02/01 08:17:30;;;;;;;9.55;3.40;;;;;;;3.38;97.87;98364.59;4193052;28;20097;-74
2023/02/01 08:19:30;;;;;;;7.65;3.40;;;;;;;3.43;98.13;98371.03;4192151;28;20339;-75
2023/02/01 08:21:36;;;;;;;8.73;3.80;;;;;;;3.42;97.81;98378.44;4191194;28;20170;-75
2023/02/01 08:23:38;;;;;;;15.35;4.05;;;;;;;3.42;99.20;98377.63;4193008;28;20435;-75
2023/02/01 08:25:38;;;;;;;8.68;4.28;;;;;;;3.43;99.49;98376.50;4195171;28;20480;-75
2023/02/01 08:27:39;;;;;;;6.38;3.53;;;;;;;3.32;99.63;98385.09;4191506;28;20557;-75
2023/02/01 08:29:39;;;;;;;8.88;3.85;;;;;;;3.44;99.57;98397.25;4191792;28;20119;-75
2023/02/01 08:31:43;;;;;;;5.82;3.08;;;;;;;3.46;99.45;98386.75;4193935;28;20044;-75
2023/02/01 08:33:47;;;;;;;8.63;3.60;;;;;;;3.53;99.75;98408.91;4191003;28;20202;-75
2023/02/01 08:35:48;;;;;;;10.93;3.50;;;;;;;3.49;100.00;98399.78;4192112;28;20437;-75
2023/02/01 08:37:50;;;;;;;10.88;4.10;;;;;;;3.49;100.00;98408.00;4191671;28;20082;-75
2023/02/01 08:39:50;;;;;;;11.60;4.32;;;;;;;3.43;100.00;98412.06;4191634;28;20094;-76
2023/02/01 08:44:10;;;;;;;7.55;3.03;;;;;;;3.42;100.00;98415.91;4190576;28;20048;-75
2023/02/01 08:46:11;;;;;;;8.57;3.97;;;;;;;3.43;100.00;98418.31;4194681;28;20016;-75
2023/02/01 08:48:11;;;;;;;8.48;3.50;;;;;;;3.42;100.00;98421.38;4193831;28;20360;-75
2023/02/01 08:50:12;;;;;;;11.43;4.55;;;;;;;3.36;100.00;98437.97;4190876;28;20123;-75
2023/02/01 08:52:12;;;;;;;10.50;3.90;;;;;;;3.31;100.00;98434.63;4191816;28;20070;-75
2023/02/01 08:54:13;;;;;;;13.82;4.18;;;;;;;3.16;100.00;98438.75;4190798;28;20038;-75
2023/02/01 08:56:15;;;;;;;8.00;3.60;;;;;;;3.13;100.00;98438.59;4191057;28;20027;-75
2023/02/01 08:58:16;;;;;;;8.40;3.83;;;;;;;3.15;100.00;98436.38;4196285;28;20040;-75
2023/02/01 09:00:18;;;;;;;13.10;5.28;;;;;;;3.10;100.00;98427.19;4191454;28;20107;-75
2023/02/01 09:02:18;;;;;;;10.35;4.18;;;;;;;3.11;100.00;98430.72;4191068;28;20681;-76
2023/02/01 09:04:19;;;;;;;14.02;5.18;;;;;;;3.07;100.00;98449.75;4193662;28;20036;-76
2023/02/01 09:06:19;;;;;;;7.10;3.45;;;;;;;3.06;100.00;98441.84;4191713;28;20029;-75
2023/02/01 09:08:20;;;;;;;7.80;3.42;;;;;;;3.03;100.00;98447.97;4190979;28;20052;-75
2023/02/01 09:10:20;;;;;;;12.45;4.40;;;;;;;3.01;100.00;98436.59;4191021;28;20373;-76
2023/02/01 09:12:20;;;;;;;9.23;3.65;;;;;;;2.91;100.00;98447.88;4191221;28;20440;-76
2023/02/01 09:14:21;;;;;;;9.45;3.80;;;;;;;2.85;100.00;98436.34;4194119;28;20040;-76
2023/02/01 09:16:21;;;;;;;8.38;4.10;;;;;;;2.84;100.00;98439.41;4193199;28;20060;-76
2023/02/01 09:18:22;;;;;;;7.40;3.55;;;;;;;2.88;100.00;98449.31;4191270;28;20040;-76
2023/02/01 09:20:23;;;;;;;7.68;3.25;;;;;;;2.89;100.00;98445.47;4190702;28;20062;-76
2023/02/01 09:22:24;;;;;;;11.02;3.70;;;;;;;2.86;100.00;98437.94;4191901;28;20048;-75
2023/02/01 09:24:24;;;;;;;5.80;3.75;;;;;;;2.89;100.00;98450.94;4194602;28;20078;-75
2023/02/01 09:26:25;;;;;;;9.27;4.40;;;;;;;2.81;100.00;98436.19;4190864;28;20177;-75
2023/02/01 09:28:26;;;;;;;11.57;3.45;;;;;;;2.89;100.00;98431.00;4196032;28;20384;-76
2023/02/01 09:30:26;;;;;;;10.13;4.32;;;;;;;2.92;100.00;98441.28;4191038;28;20118;-75
2023/02/01 09:32:26;;;;;;;9.77;3.60;;;;;;;2.99;100.00;98430.66;4190688;28;20124;-75
2023/02/01 09:34:27;;;;;;;8.73;3.08;;;;;;;3.10;100.00;98451.00;4190104;28;20477;-75
2023/02/01 09:36:27;;;;;;;10.48;3.58;;;;;;;3.10;100.00;98431.88;4191089;28;20045;-75
2023/02/01 09:38:28;;;;;;;12.13;3.78;;;;;;;3.16;100.00;98425.09;4194718;28;20400;-75
2023/02/01 09:40:28;;;;;;;6.35;3.17;;;;;;;3.26;100.00;98432.91;4194907;28;20384;-75
2023/02/01 09:42:53;;;;;;;9.88;3.60;;;;;;;3.38;100.00;98446.66;4190379;28;20052;-75
2023/02/01 09:45:14;;;;;;;9.15;3.20;;;;;;;3.48;100.00;98447.41;4189817;28;20494;-75
2023/02/01 09:47:18;;;;;;;5.50;2.90;;;;;;;3.49;100.00;98446.28;4190561;28;20056;-75
2023/02/01 09:49:27;;;;;;;11.88;3.17;;;;;;;3.47;100.00;98435.66;4190662;28;20043;-75
2023/02/01 09:51:49;;;;;;;6.75;3.35;;;;;;;3.46;100.00;98455.94;4190891;28;20045;-75
2023/02/01 09:54:02;;;;;;;5.38;3.08;;;;;;;3.36;100.00;98446.19;4193428;28;20124;-75
2023/02/01 09:56:26;;;;;;;8.80;3.60;;;;;;;3.43;100.00;98451.13;4190890;28;20394;-75
2023/02/01 09:58:35;;;;;;;12.93;3.92;;;;;;;3.46;100.00;98453.19;4193243;28;20044;-75
2023/02/01 10:00:38;;;;;;;8.88;3.83;;;;;;;3.53;100.00;98453.47;4190764;28;20048;-75
2023/02/01 10:02:40;;;;;;;7.68;4.55;;;;;;;3.52;100.00;98449.16;4189884;28;20049;-75
2023/02/01 10:04:40;;;;;;;9.80;4.30;;;;;;;3.58;100.00;98436.09;4190580;28;20134;-75